Time;durP1;ratioP1;P1;durP2;ratioP2;P2;SDS_P1;SDS_P2;PMS_P1;PMS_P2;Temp;Humidity;BMP_temperature;BMP_pressure;BME280_temperature;BME280_humidity;BME280_pressure;Samples;Min_cycle;Max_cycle;Signal;HPM_P1;HPM_P2
2021/06/02 00:00:26;;;;;;;5.92;2.15;;;;;;;12.05;59.54;99114.80;1760344;80;21552;-61
2021/06/02 00:03:03;;;;;;;5.10;2.20;;;;;;;12.10;59.49;99122.17;1889934;76;22534;-59
2021/06/02 00:05:37;;;;;;;7.58;2.25;;;;;;;12.09;59.59;99116.58;1873851;76;27938;-60
2021/06/02 00:08:13;;;;;;;5.50;1.95;;;;;;;12.11;59.53;99116.13;1889935;76;22196;-60
2021/06/02 00:10:59;;;;;;;4.95;2.33;;;;;;;12.06;59.53;99116.13;1791797;80;21114;-60
2021/06/02 00:13:35;;;;;;;4.00;2.17;;;;;;;12.09;59.75;99118.73;1870619;76;22113;-61
2021/06/02 00:16:09;;;;;;;6.47;2.40;;;;;;;12.08;59.78;99111.80;1889938;76;20097;-61
2021/06/02 00:18:58;;;;;;;6.20;2.30;;;;;;;12.01;59.87;99115.22;1791634;80;21292;-62
2021/06/02 00:21:34;;;;;;;7.37;2.70;;;;;;;12.04;59.95;99115.23;1870770;76;22113;-62
2021/06/02 00:24:09;;;;;;;5.28;2.33;;;;;;;12.01;59.96;99098.81;1873854;76;27909;-62
2021/06/02 00:26:56;;;;;;;10.82;2.50;;;;;;;12.03;60.07;99106.16;1869768;76;22168;-62
2021/06/02 00:29:35;;;;;;;5.45;2.55;;;;;;;12.00;60.17;99106.14;1870618;76;22101;-63
2021/06/02 00:32:22;;;;;;;6.50;2.02;;;;;;;11.92;60.18;99108.24;1760531;81;21263;-63
2021/06/02 00:35:00;;;;;;;4.17;2.05;;;;;;;11.93;60.24;99103.53;1870438;76;22136;-62
2021/06/02 00:37:35;;;;;;;4.55;2.33;;;;;;;11.89;60.46;99101.76;1854921;76;27953;-62
2021/06/02 00:40:15;;;;;;;5.67;2.40;;;;;;;11.91;60.56;99105.66;1873862;76;28014;-60
2021/06/02 00:42:52;;;;;;;8.35;2.40;;;;;;;11.92;60.36;99108.24;1870609;76;22128;-60
2021/06/02 00:45:34;;;;;;;4.47;2.37;;;;;;;11.91;60.52;99101.34;1869781;76;22153;-61
2021/06/02 00:48:14;;;;;;;5.53;2.55;;;;;;;11.88;60.67;99089.70;1870500;76;22247;-61
2021/06/02 00:51:00;;;;;;;6.28;2.33;;;;;;;11.82;60.77;99096.06;1760310;81;21157;-61
2021/06/02 00:53:36;;;;;;;7.30;2.58;;;;;;;11.83;60.95;99090.05;1854562;76;27921;-60
2021/06/02 00:56:14;;;;;;;6.90;2.87;;;;;;;11.84;61.07;99081.43;1889920;76;22578;-59
2021/06/02 00:59:01;;;;;;;6.37;2.50;;;;;;;11.78;61.23;99083.98;1861274;77;21679;-60
2021/06/02 01:01:36;;;;;;;7.10;2.35;;;;;;;11.80;61.25;99084.83;1870651;76;22108;-61
2021/06/02 01:04:12;;;;;;;4.85;2.15;;;;;;;11.78;61.37;99093.03;1889919;76;22223;-59
2021/06/02 01:07:01;;;;;;;5.95;2.20;;;;;;;11.72;61.48;99090.38;1861297;77;21142;-61
2021/06/02 01:09:36;;;;;;;5.10;2.65;;;;;;;11.74;61.46;99079.63;1889914;76;22550;-61
2021/06/02 01:12:17;;;;;;;6.90;2.55;;;;;;;11.74;61.61;99079.63;1889952;76;22116;-62
2021/06/02 01:14:55;;;;;;;6.05;2.65;;;;;;;11.72;61.67;99076.16;1889975;76;22112;-59
2021/06/02 01:17:35;;;;;;;10.65;2.90;;;;;;;11.71;61.82;99079.61;1869781;76;22143;-60
2021/06/02 01:20:13;;;;;;;9.00;2.67;;;;;;;11.70;62.00;99079.15;1889909;76;22574;-60
2021/06/02 01:22:47;;;;;;;5.85;2.80;;;;;;;11.68;62.04;99074.42;1854920;76;28368;-60
2021/06/02 01:25:23;;;;;;;6.58;2.98;;;;;;;11.69;62.04;99078.29;1870865;76;22543;-61
2021/06/02 01:27:56;;;;;;;6.17;2.60;;;;;;;11.68;62.21;99073.13;1855007;76;27900;-60
2021/06/02 01:30:33;;;;;;;7.72;3.12;;;;;;;11.70;62.26;99073.98;1870396;76;22620;-60
2021/06/02 01:33:16;;;;;;;4.92;2.55;;;;;;;11.66;62.27;99063.19;1870621;76;22109;-61
2021/06/02 01:36:13;;;;;;;5.33;2.35;;;;;;;11.64;62.40;99073.51;1889941;76;22558;-62
2021/06/02 01:39:11;;;;;;;6.55;2.67;;;;;;;11.61;62.63;99070.91;1870667;76;22554;-62
2021/06/02 01:42:37;;;;;;;7.50;2.52;;;;;;;11.58;62.81;99071.31;1870605;76;22160;-62
2021/06/02 01:45:43;;;;;;;6.28;2.85;;;;;;;11.51;62.87;99075.12;1827857;77;21241;-61
2021/06/02 01:48:35;;;;;;;10.53;2.83;;;;;;;11.53;63.04;99068.69;1870650;76;22121;-61
2021/06/02 01:51:48;;;;;;;5.65;2.42;;;;;;;11.51;63.07;99073.83;1870634;76;22101;-61
2021/06/02 01:55:01;;;;;;;7.42;2.58;;;;;;;11.49;63.16;99065.19;1889960;76;22120;-61
2021/06/02 01:58:14;;;;;;;8.45;2.85;;;;;;;11.47;63.34;99067.32;1870606;76;22555;-60
2021/06/02 02:01:06;;;;;;;9.15;2.75;;;;;;;11.45;63.49;99067.33;1890002;76;22219;-60
2021/06/02 02:04:17;;;;;;;4.75;2.30;;;;;;;11.45;63.60;99077.66;1870757;76;22113;-61
2021/06/02 02:07:28;;;;;;;6.50;3.02;;;;;;;11.43;63.70;99072.90;1889886;76;22132;-61
2021/06/02 02:10:56;;;;;;;7.08;3.20;;;;;;;11.44;63.77;99083.66;1870627;76;22112;-61
2021/06/02 02:13:51;;;;;;;7.87;2.70;;;;;;;11.45;63.82;99076.38;1870619;76;22156;-62
2021/06/02 02:16:46;;;;;;;5.30;2.60;;;;;;;11.45;63.87;99085.41;1889959;76;22538;-59
2021/06/02 02:19:48;;;;;;;6.53;2.40;;;;;;;11.48;63.82;99086.73;1870750;76;22511;-61
2021/06/02 02:22:52;;;;;;;9.83;2.85;;;;;;;11.49;63.80;99084.57;1890036;76;22150;-62
2021/06/02 02:25:49;;;;;;;5.58;2.75;;;;;;;11.51;63.73;99091.92;1889914;76;22568;-62
2021/06/02 02:29:01;;;;;;;8.75;2.72;;;;;;;11.53;63.72;99082.05;1870609;76;22156;-62
2021/06/02 02:31:58;;;;;;;7.65;2.72;;;;;;;11.53;63.74;99079.02;1870607;76;22149;-63
2021/06/02 02:35:15;;;;;;;7.08;2.83;;;;;;;11.53;63.74;99089.80;1870635;76;22172;-62
2021/06/02 02:38:01;;;;;;;7.35;2.98;;;;;;;11.55;63.83;99088.06;1870552;76;22580;-63
2021/06/02 02:40:56;;;;;;;6.70;2.60;;;;;;;11.53;63.79;99085.92;1889906;76;22132;-62
2021/06/02 02:44:25;;;;;;;12.45;2.65;;;;;;;11.54;63.96;99086.34;1890021;76;22226;-61
2021/06/02 02:47:11;;;;;;;6.28;2.60;;;;;;;11.54;63.87;99087.64;1870669;76;22250;-61
2021/06/02 02:50:18;;;;;;;6.55;2.60;;;;;;;11.52;64.05;99091.48;1889935;76;22167;-62
2021/06/02 02:53:06;;;;;;;6.30;3.08;;;;;;;11.53;64.08;99095.83;1873879;76;27934;-62
2021/06/02 02:55:41;;;;;;;7.85;2.42;;;;;;;11.57;63.93;99096.27;1870610;76;22550;-59
2021/06/02 02:58:40;;;;;;;6.47;2.67;;;;;;;11.56;64.00;99101.02;1889894;76;22119;-60
2021/06/02 03:01:35;;;;;;;7.45;2.90;;;;;;;11.58;63.91;99098.45;1870631;76;22112;-63
2021/06/02 03:04:25;;;;;;;5.17;2.58;;;;;;;11.57;64.07;99114.36;1889875;76;22155;-60
2021/06/02 03:07:03;;;;;;;6.60;2.80;;;;;;;11.57;64.00;99111.78;1879473;76;22156;-62
2021/06/02 03:09:55;;;;;;;5.85;2.70;;;;;;;11.51;64.13;99117.77;1769397;80;21262;-62
2021/06/02 03:12:56;;;;;;;5.65;2.22;;;;;;;11.54;64.10;99106.59;1852827;76;22627;-62
2021/06/02 03:15:48;;;;;;;6.55;2.85;;;;;;;11.55;64.33;99112.62;1854890;76;22196;-62
2021/06/02 03:19:03;;;;;;;5.42;2.45;;;;;;;11.56;64.41;99111.78;1846749;76;22285;-62
2021/06/02 03:22:02;;;;;;;11.93;2.72;;;;;;;11.51;64.61;99115.18;1870619;76;22121;-61
2021/06/02 03:25:03;;;;;;;7.08;2.60;;;;;;;11.52;64.79;99121.21;1870615;76;22128;-63
2021/06/02 03:27:52;;;;;;;6.85;2.77;;;;;;;11.50;64.61;99109.58;1870647;76;22120;-63
2021/06/02 03:30:43;;;;;;;10.05;2.90;;;;;;;11.51;64.80;99101.40;1816788;76;22242;-62
2021/06/02 03:33:44;;;;;;;8.40;2.85;;;;;;;11.51;65.02;99113.03;1864257;76;22205;-62
2021/06/02 03:36:43;;;;;;;5.08;2.80;;;;;;;11.52;65.08;99107.00;1889853;76;22124;-63
2021/06/02 03:39:26;;;;;;;7.42;3.47;;;;;;;11.57;65.12;99114.80;1889845;76;22111;-62
2021/06/02 03:42:47;;;;;;;5.87;3.15;;;;;;;11.59;65.11;99116.55;1889832;76;22605;-62
2021/06/02 03:45:40;;;;;;;7.42;2.83;;;;;;;11.62;65.02;99126.91;1845349;76;22171;-62
2021/06/02 03:49:03;;;;;;;5.87;2.52;;;;;;;11.63;65.16;99127.80;1864652;75;22638;-59
2021/06/02 03:51:49;;;;;;;6.10;2.70;;;;;;;11.64;65.18;99124.34;1851587;76;22579;-61
2021/06/02 03:54:47;;;;;;;7.40;2.50;;;;;;;11.66;65.15;99122.65;1854695;76;22149;-60
2021/06/02 03:57:50;;;;;;;6.60;2.90;;;;;;;11.67;65.20;99114.03;1866486;76;22133;-61
2021/06/02 04:01:09;;;;;;;6.92;2.85;;;;;;;11.65;65.29;99106.68;1853719;76;22226;-60
2021/06/02 04:04:07;;;;;;;9.20;3.02;;;;;;;11.59;65.42;99116.98;1855583;77;21137;-60
2021/06/02 04:07:03;;;;;;;6.60;3.00;;;;;;;11.63;65.50;99109.70;1827860;76;28010;-62
2021/06/02 04:10:03;;;;;;;6.40;2.67;;;;;;;11.65;65.60;99102.80;1876851;76;22168;-62
2021/06/02 04:12:43;;;;;;;10.82;2.95;;;;;;;11.66;65.79;99120.06;1875128;76;22617;-63
2021/06/02 04:15:22;;;;;;;6.37;2.98;;;;;;;11.66;65.85;99129.11;1852988;76;22214;-62
2021/06/02 04:17:59;;;;;;;9.75;3.60;;;;;;;11.68;65.71;99114.48;1862810;76;22549;-62
2021/06/02 04:20:46;;;;;;;6.60;2.70;;;;;;;11.64;65.91;99122.63;1827692;77;21252;-63
2021/06/02 04:23:21;;;;;;;6.45;3.02;;;;;;;11.73;65.88;99119.27;1856069;76;22207;-62
2021/06/02 04:26:00;;;;;;;6.55;3.50;;;;;;;11.75;65.76;99114.95;1841782;76;22198;-63
2021/06/02 04:28:42;;;;;;;9.13;2.72;;;;;;;11.80;65.63;99111.13;1889844;76;22140;-63
2021/06/02 04:31:26;;;;;;;7.47;3.05;;;;;;;11.83;65.62;99110.73;1869682;76;22262;-64
2021/06/02 04:34:00;;;;;;;9.65;3.10;;;;;;;11.86;65.58;99111.19;1867494;75;28012;-63
2021/06/02 04:36:36;;;;;;;11.35;2.87;;;;;;;11.90;65.50;99121.58;1870484;76;22583;-62
2021/06/02 04:39:11;;;;;;;8.75;2.52;;;;;;;11.95;65.51;99118.60;1870580;76;22161;-64
2021/06/02 04:42:01;;;;;;;7.85;2.35;;;;;;;11.97;65.47;99122.94;1809626;78;21248;-63
2021/06/02 04:44:38;;;;;;;5.75;2.35;;;;;;;12.05;65.46;99121.27;1850589;76;22554;-63
2021/06/02 04:47:12;;;;;;;5.55;3.30;;;;;;;12.10;65.42;99120.88;1855011;76;22136;-62
2021/06/02 04:50:20;;;;;;;9.40;3.10;;;;;;;12.09;65.00;99111.40;1851516;76;22167;-64
2021/06/02 04:53:44;;;;;;;5.35;2.90;;;;;;;12.10;65.26;99112.69;1862960;76;22565;-61
2021/06/02 04:56:58;;;;;;;7.70;2.77;;;;;;;12.07;65.35;99122.16;1859069;76;22224;-65
2021/06/02 05:00:19;;;;;;;5.53;2.60;;;;;;;12.06;65.28;99121.30;1889826;76;22163;-63
2021/06/02 05:03:19;;;;;;;6.67;2.90;;;;;;;12.03;65.34;99112.19;1870536;76;22137;-62
2021/06/02 05:06:23;;;;;;;5.78;2.60;;;;;;;12.05;65.42;99120.84;1870597;76;22108;-64
2021/06/02 05:09:59;;;;;;;9.28;2.75;;;;;;;12.10;65.06;99119.59;1868889;75;22193;-62
2021/06/02 05:13:14;;;;;;;4.58;2.52;;;;;;;12.13;65.26;99120.89;1870540;76;22105;-64
2021/06/02 05:16:34;;;;;;;5.03;2.90;;;;;;;12.16;65.05;99123.50;1882460;76;22168;-62
2021/06/02 05:23:01;;;;;;;7.55;2.92;;;;;;;12.33;65.07;99110.25;1869637;76;22173;-63
2021/06/02 05:26:11;;;;;;;7.92;3.08;;;;;;;12.47;64.55;99106.91;1870562;76;22544;-64
2021/06/02 05:29:17;;;;;;;9.43;2.83;;;;;;;12.62;64.01;99105.69;1870567;76;22125;-64
2021/06/02 05:32:21;;;;;;;6.50;2.77;;;;;;;12.79;63.46;99110.48;1854709;76;27916;-62
2021/06/02 05:35:27;;;;;;;7.85;2.60;;;;;;;12.97;63.01;99120.49;1870623;76;22563;-62
2021/06/02 05:38:44;;;;;;;7.80;2.70;;;;;;;13.13;62.77;99122.73;1867261;76;28436;-64
2021/06/02 05:41:58;;;;;;;7.65;2.35;;;;;;;13.46;61.71;99127.16;1889875;76;20104;-64
2021/06/02 05:45:12;;;;;;;5.83;2.72;;;;;;;13.72;61.38;99123.74;1890059;76;22143;-64
2021/06/02 05:48:16;;;;;;;10.72;2.90;;;;;;;13.92;60.14;99120.72;1889884;76;22590;-62
2021/06/02 05:51:22;;;;;;;5.72;2.65;;;;;;;14.14;59.96;99127.19;1888850;76;22171;-63
2021/06/02 05:54:19;;;;;;;4.65;2.02;;;;;;;14.54;58.98;99128.88;1835116;77;22576;-63
2021/06/02 05:57:28;;;;;;;7.22;2.90;;;;;;;15.07;57.19;99124.81;1870554;76;22113;-62
2021/06/02 06:00:43;;;;;;;5.35;2.33;;;;;;;15.52;55.61;99132.80;1870617;76;22145;-63
2021/06/02 06:03:52;;;;;;;11.20;3.00;;;;;;;15.66;55.20;99129.24;1854553;76;27949;-65
2021/06/02 06:07:21;;;;;;;5.10;2.05;;;;;;;15.76;54.72;99139.59;1889892;76;22144;-62
2021/06/02 06:10:16;;;;;;;9.75;2.15;;;;;;;15.52;54.28;99142.32;1889904;76;22132;-64
2021/06/02 06:13:34;;;;;;;5.15;2.20;;;;;;;15.33;54.49;99138.97;1870604;76;22137;-61
2021/06/02 06:16:44;;;;;;;10.58;2.50;;;;;;;15.24;54.91;99141.20;1889824;76;22622;-64
2021/06/02 06:20:03;;;;;;;5.58;2.20;;;;;;;15.18;55.28;99149.02;1889872;76;22140;-64
2021/06/02 06:22:52;;;;;;;8.10;2.90;;;;;;;15.00;55.40;99137.41;1870573;76;22145;-61
2021/06/02 06:25:54;;;;;;;6.70;2.20;;;;;;;14.90;55.44;99136.57;1870509;76;22551;-64
2021/06/02 06:28:40;;;;;;;5.92;1.98;;;;;;;14.85;55.81;99137.02;1870565;76;22153;-63
2021/06/02 06:31:24;;;;;;;8.23;2.30;;;;;;;14.89;55.69;99139.61;1854764;76;27813;-60
2021/06/02 06:34:07;;;;;;;7.37;2.17;;;;;;;14.92;55.26;99143.48;1852251;76;22195;-62
2021/06/02 06:36:47;;;;;;;9.45;2.70;;;;;;;15.03;55.38;99136.94;1869710;76;22179;-62
2021/06/02 06:39:54;;;;;;;4.80;2.05;;;;;;;15.37;55.06;99143.30;1889895;76;22275;-64
2021/06/02 06:42:36;;;;;;;8.10;3.30;;;;;;;15.52;54.32;99147.52;1889967;76;22152;-64
2021/06/02 06:45:18;;;;;;;8.45;2.45;;;;;;;15.66;53.80;99138.34;1889871;76;22144;-63
2021/06/02 06:48:18;;;;;;;6.67;2.00;;;;;;;15.81;53.38;99137.83;1861278;77;21557;-62
2021/06/02 06:50:57;;;;;;;6.62;2.25;;;;;;;16.41;52.97;99135.13;1889905;76;22187;-63
2021/06/02 06:53:32;;;;;;;9.73;3.27;;;;;;;16.84;50.14;99134.70;1889866;76;22563;-63
2021/06/02 06:56:29;;;;;;;6.58;2.20;;;;;;;16.85;50.63;99129.94;1865991;75;27964;-64
2021/06/02 06:59:04;;;;;;;6.28;2.10;;;;;;;16.78;50.43;99134.34;1889864;76;22115;-64
2021/06/02 07:01:40;;;;;;;6.15;2.10;;;;;;;16.66;50.71;99123.60;1889964;76;22554;-63
2021/06/02 07:04:17;;;;;;;5.42;2.12;;;;;;;16.49;50.86;99123.77;1889889;76;20100;-64
2021/06/02 07:06:54;;;;;;;4.75;2.02;;;;;;;16.30;51.50;99127.88;1870451;76;22159;-62
2021/06/02 07:09:29;;;;;;;4.60;1.70;;;;;;;16.26;51.83;99127.05;1870458;76;22586;-65
2021/06/02 07:12:07;;;;;;;7.05;2.08;;;;;;;16.37;51.31;99124.34;1854640;76;38222;-65
2021/06/02 07:14:43;;;;;;;4.35;2.08;;;;;;;16.50;50.87;99122.02;1890037;76;22581;-63
2021/06/02 07:17:30;;;;;;;4.10;1.70;;;;;;;16.50;50.64;99130.70;1861055;77;21126;-63
2021/06/02 07:20:08;;;;;;;6.22;2.15;;;;;;;16.47;50.59;99131.18;1870685;76;22163;-62
2021/06/02 07:22:52;;;;;;;6.33;2.02;;;;;;;16.42;50.87;99120.80;1889939;76;22562;-61
2021/06/02 07:25:30;;;;;;;8.83;2.67;;;;;;;16.36;51.26;99125.20;1880183;76;22187;-62
2021/06/02 07:28:09;;;;;;;5.03;1.87;;;;;;;16.32;51.24;99127.42;1855730;76;22620;-63
2021/06/02 07:30:50;;;;;;;6.40;1.90;;;;;;;16.19;51.58;99105.41;1869673;76;22159;-62
2021/06/02 07:33:32;;;;;;;4.37;2.00;;;;;;;16.16;51.94;99127.57;1889807;76;22185;-62
2021/06/02 07:36:08;;;;;;;7.22;2.20;;;;;;;16.13;52.04;99139.32;1873741;76;28340;-63
2021/06/02 07:38:44;;;;;;;7.60;2.35;;;;;;;16.10;51.96;99133.26;1819343;77;28460;-62
2021/06/02 07:44:12;;;;;;;5.85;2.20;;;;;;;15.93;52.24;99108.25;1869784;76;22140;-64
2021/06/02 07:46:47;;;;;;;5.75;2.12;;;;;;;15.80;52.95;99134.81;1858930;76;22194;-63
2021/06/02 07:49:22;;;;;;;6.70;2.15;;;;;;;15.80;52.93;99132.66;1880111;76;22186;-65
2021/06/02 07:52:00;;;;;;;7.92;2.37;;;;;;;15.77;53.26;99142.64;1870511;76;22219;-64
2021/06/02 07:54:33;;;;;;;6.05;2.35;;;;;;;15.75;53.35;99143.53;1889823;76;22606;-63
2021/06/02 07:57:08;;;;;;;4.42;1.77;;;;;;;15.84;53.45;99127.39;1889859;76;22196;-62
2021/06/02 07:59:43;;;;;;;6.90;2.10;;;;;;;15.88;53.14;99119.58;1889749;76;22558;-65
2021/06/02 08:02:37;;;;;;;7.62;2.10;;;;;;;15.89;53.66;99133.00;1872353;75;22611;-63
2021/06/02 08:05:22;;;;;;;5.95;2.05;;;;;;;16.03;53.54;99128.56;1870558;76;22121;-62
2021/06/02 08:07:57;;;;;;;5.22;1.98;;;;;;;16.22;52.83;99130.55;1889815;76;22159;-65
2021/06/02 08:10:44;;;;;;;5.20;2.20;;;;;;;16.31;51.80;99132.19;1791500;80;21145;-63
2021/06/02 08:13:20;;;;;;;8.60;2.25;;;;;;;16.63;51.32;99136.64;1870510;76;22210;-63
2021/06/02 08:16:16;;;;;;;8.83;2.22;;;;;;;16.95;51.03;99142.42;1855142;75;27878;-64
2021/06/02 08:19:02;;;;;;;5.90;2.00;;;;;;;17.26;49.86;99137.67;1889837;76;22132;-63
2021/06/02 08:21:43;;;;;;;5.67;2.05;;;;;;;17.41;49.90;99140.08;1889804;76;22208;-63
2021/06/02 08:24:39;;;;;;;6.45;2.15;;;;;;;17.57;49.01;99145.48;1869585;75;22203;-66
2021/06/02 08:27:14;;;;;;;7.45;1.90;;;;;;;17.54;47.85;99152.50;1870496;76;22173;-65
2021/06/02 08:29:53;;;;;;;10.13;2.22;;;;;;;17.19;48.54;99145.15;1870479;76;22149;-65
2021/06/02 08:32:36;;;;;;;7.55;2.45;;;;;;;17.09;49.54;99136.12;1873814;76;27919;-63
2021/06/02 08:35:15;;;;;;;4.42;1.70;;;;;;;17.16;49.19;99139.53;1870433;76;22152;-65
2021/06/02 08:37:49;;;;;;;9.13;2.10;;;;;;;17.11;48.61;99135.67;1859140;76;22136;-65
2021/06/02 08:40:31;;;;;;;7.42;2.33;;;;;;;17.14;48.88;99134.33;1860497;76;22225;-65
2021/06/02 08:43:25;;;;;;;9.98;2.60;;;;;;;17.24;48.91;99143.34;1853361;76;22172;-63
2021/06/02 08:46:00;;;;;;;4.85;1.72;;;;;;;17.34;48.57;99156.69;1856945;76;22598;-64
2021/06/02 08:48:38;;;;;;;8.83;2.30;;;;;;;17.32;48.15;99154.53;1870576;76;22133;-64
2021/06/02 08:51:35;;;;;;;4.90;1.90;;;;;;;17.12;48.42;99153.48;1829606;76;22342;-63
2021/06/02 08:54:11;;;;;;;7.33;2.15;;;;;;;17.12;49.02;99140.03;1855774;76;22202;-65
2021/06/02 08:56:46;;;;;;;7.05;1.87;;;;;;;17.28;48.38;99168.07;1841839;76;28016;-63
2021/06/02 08:59:22;;;;;;;6.47;1.87;;;;;;;17.39;47.98;99161.84;1833882;76;27925;-65
2021/06/02 09:01:58;;;;;;;9.28;1.90;;;;;;;17.38;47.89;99171.84;1845207;76;22225;-65
2021/06/02 09:04:34;;;;;;;12.37;2.10;;;;;;;17.29;48.09;99167.63;1863224;76;22171;-64
2021/06/02 09:07:11;;;;;;;13.62;2.72;;;;;;;17.21;48.04;99169.47;1848473;76;22190;-65
2021/06/02 09:09:52;;;;;;;5.75;2.35;;;;;;;17.10;48.33;99170.47;1869067;76;22563;-64
2021/06/02 09:12:43;;;;;;;8.68;2.27;;;;;;;17.03;48.39;99167.95;1870551;76;22149;-64
2021/06/02 09:15:38;;;;;;;8.88;2.15;;;;;;;16.83;48.92;99165.58;1846890;76;22199;-65
2021/06/02 09:18:19;;;;;;;7.30;2.10;;;;;;;16.66;49.22;99160.08;1838394;76;28000;-64
2021/06/02 09:21:05;;;;;;;9.45;2.50;;;;;;;16.59;49.62;99157.11;1808499;78;21365;-65
2021/06/02 09:23:45;;;;;;;8.25;2.30;;;;;;;16.65;49.67;99150.97;1854437;76;28033;-65
2021/06/02 09:29:11;;;;;;;5.50;1.62;;;;;;;16.74;49.88;99154.79;1889874;76;22167;-65
2021/06/02 09:31:47;;;;;;;3.40;1.67;;;;;;;16.83;48.91;99156.45;1863685;76;22227;-65
2021/06/02 09:34:26;;;;;;;5.78;1.80;;;;;;;16.78;48.79;99146.52;1864663;76;28438;-66
2021/06/02 09:37:03;;;;;;;7.90;2.50;;;;;;;16.81;48.66;99159.51;1870737;76;22149;-65
2021/06/02 09:39:45;;;;;;;11.05;1.75;;;;;;;16.79;48.56;99148.23;1861326;76;22144;-65
2021/06/02 09:42:31;;;;;;;7.22;1.60;;;;;;;16.62;48.51;99154.47;1823910;78;21098;-65
2021/06/02 09:47:52;;;;;;;11.00;1.50;;;;;;;16.53;49.41;99162.37;1870266;76;22164;-64
2021/06/02 09:50:39;;;;;;;6.22;2.35;;;;;;;16.56;49.79;99158.42;1863904;76;22179;-66
2021/06/02 09:53:13;;;;;;;9.73;2.17;;;;;;;16.55;49.57;99152.80;1851869;76;22645;-65
2021/06/02 09:55:51;;;;;;;3.60;1.40;;;;;;;16.44;49.68;99166.38;1851893;76;22190;-65
2021/06/02 09:58:24;;;;;;;6.83;2.00;;;;;;;16.46;50.10;99175.02;1838533;76;28419;-65
2021/06/02 10:00:59;;;;;;;6.33;1.98;;;;;;;16.55;49.62;99150.19;1848714;76;27991;-64
2021/06/02 10:03:41;;;;;;;6.87;2.10;;;;;;;16.61;49.52;99165.78;1863384;76;28069;-65
2021/06/02 10:06:23;;;;;;;10.45;1.77;;;;;;;16.64;49.63;99173.56;1861246;76;20101;-64
2021/06/02 10:09:06;;;;;;;3.65;1.85;;;;;;;16.67;49.87;99170.06;1854587;76;22195;-65
2021/06/02 10:11:57;;;;;;;4.08;2.05;;;;;;;16.76;50.07;99177.77;1870677;76;22144;-65
2021/06/02 10:14:42;;;;;;;8.35;1.82;;;;;;;16.89;49.60;99170.70;1869573;76;22167;-64
2021/06/02 10:17:38;;;;;;;7.83;1.72;;;;;;;16.91;49.46;99176.32;1870425;76;22142;-65
2021/06/02 10:20:25;;;;;;;3.58;1.50;;;;;;;16.88;49.14;99168.99;1827402;77;21130;-67
2021/06/02 10:23:07;;;;;;;6.45;1.82;;;;;;;16.82;49.03;99176.89;1889786;76;22200;-66
2021/06/02 10:25:48;;;;;;;6.42;1.62;;;;;;;16.71;49.75;99183.05;1869618;76;22572;-66
2021/06/02 10:28:26;;;;;;;6.12;2.10;;;;;;;16.74;50.21;99177.36;1828878;76;27996;-67
2021/06/02 10:31:05;;;;;;;6.97;1.90;;;;;;;16.83;50.34;99184.67;1854794;76;28316;-68
2021/06/02 10:33:46;;;;;;;3.85;1.80;;;;;;;16.97;50.39;99176.72;1889715;76;22620;-67
2021/06/02 10:36:22;;;;;;;4.97;2.20;;;;;;;16.94;49.20;99184.55;1870540;76;22153;-67
2021/06/02 10:39:07;;;;;;;4.28;1.32;;;;;;;16.83;49.29;99185.13;1834310;77;22178;-66
2021/06/02 10:41:54;;;;;;;7.92;2.52;;;;;;;16.71;49.23;99184.35;1859155;76;22210;-67
2021/06/02 10:44:39;;;;;;;7.90;1.92;;;;;;;16.60;49.85;99190.09;1857307;76;22628;-69
2021/06/02 10:47:28;;;;;;;7.10;1.70;;;;;;;16.55;50.34;99184.52;1827406;78;21542;-69
2021/06/02 10:50:03;;;;;;;4.70;1.80;;;;;;;16.59;49.92;99182.28;1854561;76;38210;-66
2021/06/02 10:52:41;;;;;;;3.60;1.50;;;;;;;16.60;49.85;99186.63;1870290;76;22208;-67
2021/06/02 10:55:36;;;;;;;6.58;1.45;;;;;;;16.58;49.53;99184.03;1889829;76;22140;-67
2021/06/02 10:58:30;;;;;;;3.75;1.92;;;;;;;16.53;49.48;99180.60;1783318;80;21166;-67
2021/06/02 11:01:24;;;;;;;5.08;2.08;;;;;;;16.54;49.59;99194.08;1877215;75;22657;-68
2021/06/02 11:04:11;;;;;;;6.28;1.95;;;;;;;16.54;49.70;99182.34;1854479;76;27901;-65
2021/06/02 11:06:47;;;;;;;6.30;1.72;;;;;;;16.64;49.83;99191.80;1854675;76;28325;-68
2021/06/02 11:09:22;;;;;;;3.55;1.60;;;;;;;16.78;49.63;99196.03;1870507;76;22144;-67
2021/06/02 11:12:03;;;;;;;7.17;1.98;;;;;;;16.84;49.39;99193.35;1854582;76;27928;-67
2021/06/02 11:14:39;;;;;;;3.42;1.42;;;;;;;17.01;49.45;99195.78;1870516;76;22141;-67
2021/06/02 11:17:18;;;;;;;8.28;1.95;;;;;;;17.16;49.02;99194.75;1889758;76;22175;-68
2021/06/02 11:19:57;;;;;;;8.48;1.72;;;;;;;17.24;48.61;99191.59;1889792;76;22232;-66
2021/06/02 11:22:34;;;;;;;9.55;2.15;;;;;;;17.26;48.53;99193.75;1854497;76;27911;-68
2021/06/02 11:25:22;;;;;;;10.40;2.00;;;;;;;17.27;48.70;99204.59;1864985;76;22204;-67
2021/06/02 11:28:09;;;;;;;14.33;1.87;;;;;;;17.25;47.98;99195.92;1859582;76;22643;-69
2021/06/02 11:30:44;;;;;;;5.10;1.82;;;;;;;17.22;48.49;99201.18;1889781;76;22582;-69
2021/06/02 11:33:30;;;;;;;4.67;1.55;;;;;;;17.26;48.50;99196.36;1869562;76;22172;-69
2021/06/02 11:36:12;;;;;;;5.12;1.60;;;;;;;17.25;48.45;99194.61;1869649;76;22575;-67
2021/06/02 11:38:48;;;;;;;11.70;2.00;;;;;;;17.24;48.66;99191.59;1870383;76;22164;-68
2021/06/02 11:41:24;;;;;;;7.33;2.10;;;;;;;17.24;48.08;99190.30;1854447;76;27887;-67
2021/06/02 11:43:59;;;;;;;5.58;2.20;;;;;;;17.31;48.78;99202.38;1867846;76;22275;-68
2021/06/02 11:46:48;;;;;;;9.60;1.82;;;;;;;17.29;47.74;99199.78;1827351;78;21601;-67
2021/06/02 11:49:30;;;;;;;5.80;1.60;;;;;;;17.38;48.05;99198.82;1854033;76;22186;-65
2021/06/02 11:52:13;;;;;;;3.40;1.57;;;;;;;17.39;47.65;99200.98;1861878;76;22201;-67
2021/06/02 11:54:59;;;;;;;7.62;1.98;;;;;;;17.38;47.45;99197.52;1848777;76;22192;-67
2021/06/02 11:57:52;;;;;;;5.30;1.90;;;;;;;17.34;47.52;99197.98;1813671;78;21268;-67
2021/06/02 12:00:34;;;;;;;6.10;1.85;;;;;;;17.44;47.81;99196.12;1847237;76;20223;-68
2021/06/02 12:03:11;;;;;;;7.22;1.98;;;;;;;17.50;47.89;99194.75;1860390;76;20474;-66
2021/06/02 12:05:49;;;;;;;4.85;1.60;;;;;;;17.58;47.63;99182.45;1870316;76;22168;-65
2021/06/02 12:08:36;;;;;;;5.78;1.72;;;;;;;17.56;47.64;99194.66;1827702;77;21699;-66
2021/06/02 12:11:18;;;;;;;5.62;1.80;;;;;;;17.69;47.50;99192.73;1889710;76;22637;-65
2021/06/02 12:13:54;;;;;;;7.12;2.02;;;;;;;17.75;47.47;99183.95;1873618;76;27890;-65
2021/06/02 12:16:42;;;;;;;6.72;1.80;;;;;;;17.77;46.95;99197.84;1779365;80;21735;-65
2021/06/02 12:19:17;;;;;;;7.28;2.10;;;;;;;17.84;47.19;99191.69;1844378;76;22586;-66
2021/06/02 12:21:53;;;;;;;7.00;2.15;;;;;;;17.93;47.51;99198.05;1870240;76;22209;-68
2021/06/02 12:24:28;;;;;;;8.98;2.33;;;;;;;18.07;47.05;99197.01;1870625;76;22581;-67
2021/06/02 12:27:03;;;;;;;4.90;1.75;;;;;;;18.20;46.55;99192.00;1870542;76;22240;-64
2021/06/02 12:29:38;;;;;;;7.42;2.22;;;;;;;18.21;46.23;99188.48;1889817;76;22144;-67
2021/06/02 12:32:14;;;;;;;7.17;1.92;;;;;;;18.24;46.24;99194.96;1854484;76;27915;-66
2021/06/02 12:34:50;;;;;;;4.30;2.08;;;;;;;18.31;46.06;99196.59;1870341;76;22583;-68
2021/06/02 12:37:24;;;;;;;6.10;1.47;;;;;;;18.37;46.46;99195.65;1870528;76;22144;-64
2021/06/02 12:40:04;;;;;;;11.90;1.70;;;;;;;18.42;46.33;99202.52;1855175;76;22215;-67
2021/06/02 12:42:46;;;;;;;4.55;1.67;;;;;;;18.48;45.34;99199.38;1889763;76;22152;-67
2021/06/02 12:45:27;;;;;;;7.30;1.77;;;;;;;18.52;45.27;99196.69;1870497;76;22635;-67
2021/06/02 12:48:04;;;;;;;6.15;1.67;;;;;;;18.63;44.90;99183.42;1889738;76;22208;-66
2021/06/02 12:50:46;;;;;;;6.75;1.85;;;;;;;18.68;43.98;99192.49;1870543;76;20098;-65
2021/06/02 12:53:48;;;;;;;4.42;1.45;;;;;;;18.69;44.15;99196.37;1869631;76;22266;-65
2021/06/02 12:56:22;;;;;;;8.40;1.80;;;;;;;18.72;44.30;99184.98;1854576;76;27918;-65
2021/06/02 12:59:03;;;;;;;7.20;1.95;;;;;;;18.74;44.47;99216.75;1869641;76;22186;-66
2021/06/02 13:01:39;;;;;;;6.50;1.57;;;;;;;18.71;44.38;99199.82;1863323;76;20112;-67
2021/06/02 13:04:26;;;;;;;6.05;1.87;;;;;;;18.69;44.14;99209.89;1830559;78;21607;-67
2021/06/02 13:07:02;;;;;;;6.40;2.20;;;;;;;18.73;44.40;99207.20;1854626;76;27924;-64
2021/06/02 13:09:37;;;;;;;7.58;2.00;;;;;;;18.83;44.12;99213.16;1854501;76;27924;-65
2021/06/02 13:12:18;;;;;;;6.42;1.90;;;;;;;18.90;44.15;99212.58;1870579;76;22148;-66
2021/06/02 13:14:53;;;;;;;4.75;1.72;;;;;;;18.93;43.98;99216.44;1889822;76;22599;-68
2021/06/02 13:17:40;;;;;;;4.17;1.57;;;;;;;18.84;43.34;99222.27;1869743;76;22301;-66